Time;durP1;ratioP1;P1;durP2;ratioP2;P2;SDS_P1;SDS_P2;PMS_P1;PMS_P2;Temp;Humidity;BMP_temperature;BMP_pressure;BME280_temperature;BME280_humidity;BME280_pressure;Samples;Min_cycle;Max_cycle;Signal;HPM_P1;HPM_P2
2022/10/29 00:01:12;;;;;;;36.67;9.82;;;15.10;99.90;;;;;;5001238;28;20026;-60
2022/10/29 00:03:38;;;;;;;34.92;8.88;;;15.10;99.90;;;;;;4997370;28;20468;-61
2022/10/29 00:06:05;;;;;;;36.03;10.00;;;15.20;99.90;;;;;;4998796;28;20474;-59
2022/10/29 00:08:33;;;;;;;29.50;9.48;;;15.20;99.90;;;;;;4999497;28;20109;-61
2022/10/29 00:11:15;;;;;;;34.58;9.75;;;15.20;99.90;;;;;;5003839;28;20079;-61
2022/10/29 00:13:42;;;;;;;30.40;9.50;;;15.20;99.90;;;;;;4979659;28;20026;-61
2022/10/29 00:16:15;;;;;;;34.58;9.60;;;15.10;99.90;;;;;;5000476;28;21059;-61
2022/10/29 00:18:41;;;;;;;28.20;10.32;;;15.10;99.90;;;;;;5007560;28;20105;-60
2022/10/29 00:21:10;;;;;;;27.48;9.07;;;15.10;99.90;;;;;;5009772;28;20117;-60
2022/10/29 00:23:36;;;;;;;29.85;8.73;;;15.20;99.90;;;;;;5009086;28;20109;-60
2022/10/29 00:26:02;;;;;;;28.70;8.80;;;15.20;99.90;;;;;;5009341;28;20113;-61
2022/10/29 00:28:29;;;;;;;22.42;8.85;;;15.20;99.90;;;;;;5009311;28;20096;-61
2022/10/29 00:30:54;;;;;;;30.17;9.65;;;15.20;99.90;;;;;;5006385;28;20033;-61
2022/10/29 00:33:20;;;;;;;28.55;8.48;;;15.30;99.90;;;;;;5009960;28;20125;-61
2022/10/29 00:35:55;;;;;;;22.73;9.10;;;15.20;99.90;;;;;;5007093;28;20033;-60
2022/10/29 00:38:21;;;;;;;26.63;9.70;;;15.20;99.90;;;;;;5005729;28;20041;-61
2022/10/29 00:40:47;;;;;;;26.10;8.90;;;15.30;99.90;;;;;;5006787;28;20030;-61
2022/10/29 00:43:18;;;;;;;30.63;9.32;;;15.30;99.90;;;;;;5009457;28;20105;-61
2022/10/29 00:46:08;;;;;;;29.80;8.50;;;15.40;99.90;;;;;;5006769;28;20193;-60
2022/10/29 00:48:39;;;;;;;25.35;9.55;;;15.30;99.90;;;;;;5008675;28;20041;-61
2022/10/29 00:51:07;;;;;;;24.88;8.18;;;15.20;99.90;;;;;;5005102;28;20030;-61
2022/10/29 00:53:37;;;;;;;22.42;9.45;;;15.20;99.90;;;;;;5005700;28;20033;-61
2022/10/29 00:56:03;;;;;;;21.20;8.80;;;15.30;99.90;;;;;;5007954;28;20492;-60
2022/10/29 00:58:28;;;;;;;29.17;9.55;;;15.30;99.90;;;;;;5008376;28;20196;-60
2022/10/29 01:00:54;;;;;;;14.48;7.45;;;15.30;99.90;;;;;;5005963;28;20576;-60
2022/10/29 01:03:20;;;;;;;25.13;9.32;;;15.30;99.90;;;;;;5007495;28;20109;-59
2022/10/29 01:05:47;;;;;;;30.33;10.27;;;15.20;99.90;;;;;;5010692;28;20041;-60
2022/10/29 01:08:13;;;;;;;22.40;8.90;;;15.30;99.90;;;;;;5007741;28;20033;-57
2022/10/29 01:11:02;;;;;;;16.90;9.07;;;15.20;99.90;;;;;;5008056;28;20022;-60
2022/10/29 01:13:38;;;;;;;25.95;9.77;;;15.10;99.90;;;;;;5005556;28;20022;-57
2022/10/29 01:16:18;;;;;;;23.65;8.57;;;15.10;99.90;;;;;;5003507;28;20504;-58
2022/10/29 01:19:01;;;;;;;26.50;8.40;;;15.00;99.90;;;;;;5000908;28;20348;-61
2022/10/29 01:21:38;;;;;;;28.13;8.90;;;14.80;99.90;;;;;;5009701;28;20022;-59
2022/10/29 01:24:15;;;;;;;26.13;9.35;;;14.80;99.90;;;;;;5005232;28;20467;-60
2022/10/29 01:26:50;;;;;;;22.50;9.63;;;14.90;99.90;;;;;;5004288;28;20034;-60
2022/10/29 01:29:47;;;;;;;36.17;10.43;;;14.80;99.90;;;;;;5008056;28;20404;-60
2022/10/29 01:32:19;;;;;;;27.35;9.63;;;14.70;99.90;;;;;;5000127;28;20056;-58
2022/10/29 01:35:09;;;;;;;24.35;8.88;;;14.70;99.90;;;;;;5008254;28;20037;-60
2022/10/29 01:37:55;;;;;;;27.23;9.75;;;14.70;99.90;;;;;;4999710;28;20594;-60
2022/10/29 01:40:38;;;;;;;32.13;10.52;;;14.70;99.90;;;;;;5004997;28;20030;-60
2022/10/29 01:43:32;;;;;;;31.25;8.15;;;14.80;99.90;;;;;;5004569;28;20041;-59
2022/10/29 01:46:04;;;;;;;34.55;9.52;;;14.80;99.90;;;;;;5006051;28;20601;-60
2022/10/29 01:48:36;;;;;;;27.20;10.38;;;14.90;99.90;;;;;;4997923;28;20030;-60
2022/10/29 01:51:08;;;;;;;31.67;9.45;;;14.90;99.90;;;;;;4999471;28;20746;-60
2022/10/29 01:53:36;;;;;;;39.75;9.10;;;15.00;99.90;;;;;;5002767;28;20105;-61
2022/10/29 01:56:01;;;;;;;28.40;9.10;;;15.00;99.90;;;;;;5001199;28;20040;-60
2022/10/29 01:58:27;;;;;;;23.23;8.52;;;15.00;99.90;;;;;;4999231;28;20034;-60
2022/10/29 02:00:58;;;;;;;32.17;10.00;;;15.00;99.90;;;;;;5006612;28;20068;-60
2022/10/29 02:03:55;;;;;;;34.05;9.02;;;14.90;99.90;;;;;;5003507;28;20026;-61
2022/10/29 02:06:49;;;;;;;20.83;8.65;;;15.00;99.90;;;;;;4995198;28;20030;-61
2022/10/29 02:09:53;;;;;;;27.38;8.82;;;14.90;99.90;;;;;;4994350;28;20076;-61
2022/10/29 02:12:26;;;;;;;25.15;8.90;;;15.00;99.90;;;;;;5003875;28;20025;-61
2022/10/29 02:15:21;;;;;;;28.45;9.25;;;14.90;99.90;;;;;;5000505;28;20028;-60
2022/10/29 02:17:46;;;;;;;24.20;8.65;;;14.80;99.90;;;;;;4993667;28;20102;-61
2022/10/29 02:20:14;;;;;;;21.88;8.52;;;14.80;99.90;;;;;;4998311;28;20168;-61
2022/10/29 02:22:40;;;;;;;34.92;9.40;;;14.80;99.90;;;;;;5000947;28;20430;-59
2022/10/29 02:25:07;;;;;;;32.83;9.52;;;14.90;99.90;;;;;;5001007;28;20258;-61
2022/10/29 02:27:33;;;;;;;24.73;9.00;;;14.90;99.90;;;;;;4998068;28;20131;-60
2022/10/29 02:29:59;;;;;;;26.75;8.93;;;14.80;99.90;;;;;;5002898;28;20095;-59
2022/10/29 02:32:24;;;;;;;25.88;8.60;;;14.80;99.90;;;;;;5002521;28;20169;-60
2022/10/29 02:34:50;;;;;;;20.48;8.20;;;14.80;99.90;;;;;;5005853;28;20030;-59
2022/10/29 02:37:15;;;;;;;30.83;8.30;;;14.80;99.90;;;;;;5004105;28;20037;-59
2022/10/29 02:39:41;;;;;;;28.85;8.20;;;14.70;99.90;;;;;;5001168;28;20030;-60
2022/10/29 02:42:06;;;;;;;19.35;8.40;;;14.70;99.90;;;;;;5003739;28;20030;-60
2022/10/29 02:44:32;;;;;;;29.98;9.35;;;14.60;99.90;;;;;;5005968;28;20049;-60
2022/10/29 02:46:57;;;;;;;27.17;8.82;;;14.50;99.90;;;;;;5005313;28;20057;-61
2022/10/29 02:49:23;;;;;;;30.92;8.77;;;14.50;99.90;;;;;;5004863;28;20111;-61
2022/10/29 02:51:49;;;;;;;29.23;8.80;;;14.40;99.90;;;;;;5004756;28;20026;-61
2022/10/29 02:54:14;;;;;;;23.77;8.57;;;14.40;99.90;;;;;;4998742;28;20041;-60
2022/10/29 02:56:40;;;;;;;32.78;11.70;;;14.40;99.90;;;;;;5005228;28;20034;-60
2022/10/29 02:59:05;;;;;;;41.33;9.25;;;14.40;99.90;;;;;;5001409;28;20049;-61
2022/10/29 03:01:31;;;;;;;30.02;9.30;;;14.30;99.90;;;;;;5000185;28;20147;-61
2022/10/29 03:03:57;;;;;;;30.52;8.40;;;14.30;99.90;;;;;;5004795;28;20187;-61
2022/10/29 03:06:22;;;;;;;42.75;9.32;;;14.30;99.90;;;;;;5002776;28;20099;-60
2022/10/29 03:08:48;;;;;;;26.80;8.10;;;14.30;99.90;;;;;;5005440;28;20018;-59
2022/10/29 03:11:14;;;;;;;36.17;9.68;;;14.30;99.90;;;;;;5007217;28;20033;-60
2022/10/29 03:13:40;;;;;;;38.45;8.65;;;14.40;99.90;;;;;;5004468;28;20022;-60
2022/10/29 03:16:05;;;;;;;31.92;8.20;;;14.30;99.90;;;;;;5003631;28;20628;-60
2022/10/29 03:18:31;;;;;;;20.80;7.30;;;14.30;99.90;;;;;;5004578;28;20145;-60
2022/10/29 03:20:56;;;;;;;33.63;7.82;;;14.30;99.90;;;;;;4997833;28;20030;-59
2022/10/29 03:23:22;;;;;;;24.02;9.23;;;14.20;99.90;;;;;;5000710;28;21330;-59
2022/10/29 03:25:52;;;;;;;16.90;7.90;;;14.20;99.90;;;;;;5002714;28;20036;-59
2022/10/29 03:28:18;;;;;;;32.75;9.05;;;14.10;99.90;;;;;;5000462;28;20724;-60
2022/10/29 03:30:44;;;;;;;27.00;8.80;;;14.10;99.90;;;;;;5002700;28;20026;-60
2022/10/29 03:33:09;;;;;;;26.75;8.40;;;14.10;99.90;;;;;;5002695;28;20037;-60
2022/10/29 03:35:35;;;;;;;30.60;8.70;;;14.00;99.90;;;;;;5000447;28;20030;-60
2022/10/29 03:38:00;;;;;;;23.42;8.00;;;14.00;99.90;;;;;;5004921;28;20077;-60
2022/10/29 03:40:26;;;;;;;30.00;9.05;;;13.90;99.90;;;;;;5003463;28;20113;-60
2022/10/29 03:42:51;;;;;;;19.27;7.88;;;13.80;99.90;;;;;;5001877;28;20095;-59
2022/10/29 03:45:17;;;;;;;29.15;9.63;;;13.70;99.90;;;;;;5002083;28;20026;-60
2022/10/29 03:47:42;;;;;;;28.50;9.38;;;13.60;99.90;;;;;;5005818;28;20026;-60
2022/10/29 03:50:08;;;;;;;29.02;9.13;;;13.50;99.90;;;;;;4994775;28;20036;-60
2022/10/29 03:52:34;;;;;;;35.97;9.00;;;13.40;99.90;;;;;;5005993;28;20116;-61
2022/10/29 03:54:59;;;;;;;26.88;9.60;;;13.40;99.90;;;;;;5002825;28;20124;-63
2022/10/29 03:57:25;;;;;;;29.02;9.98;;;13.50;99.90;;;;;;5003678;28;20057;-59
2022/10/29 03:59:50;;;;;;;28.42;10.02;;;13.60;99.90;;;;;;5006098;28;20022;-61
2022/10/29 04:02:16;;;;;;;19.75;8.80;;;13.60;99.90;;;;;;5002902;28;20136;-60
2022/10/29 04:04:41;;;;;;;27.23;9.38;;;13.60;99.90;;;;;;5002906;28;20021;-61
2022/10/29 04:07:07;;;;;;;24.98;8.70;;;13.70;99.90;;;;;;5006268;28;20029;-60
2022/10/29 04:09:32;;;;;;;29.08;9.35;;;13.70;99.90;;;;;;5003127;28;20117;-60
2022/10/29 04:11:59;;;;;;;23.13;9.27;;;13.80;99.90;;;;;;5006461;28;20022;-60
2022/10/29 04:14:25;;;;;;;21.02;9.00;;;13.90;99.90;;;;;;5003154;28;20180;-59
2022/10/29 04:16:50;;;;;;;29.50;9.98;;;13.90;99.90;;;;;;5003489;28;20548;-58
2022/10/29 04:19:16;;;;;;;20.75;9.07;;;13.90;99.90;;;;;;5005609;28;20041;-60
2022/10/29 04:21:41;;;;;;;30.60;8.50;;;14.00;99.90;;;;;;5003942;28;20035;-60
2022/10/29 04:24:07;;;;;;;28.27;9.40;;;14.00;99.90;;;;;;5005305;28;20400;-60
2022/10/29 04:26:33;;;;;;;30.35;10.13;;;14.10;99.90;;;;;;5004169;28;20500;-60
2022/10/29 04:28:58;;;;;;;32.67;9.18;;;14.10;99.90;;;;;;5005075;28;20036;-61
2022/10/29 04:31:24;;;;;;;30.00;9.55;;;14.10;99.90;;;;;;5003754;28;20042;-60
2022/10/29 04:33:52;;;;;;;31.70;9.48;;;14.10;99.90;;;;;;5004990;28;20065;-60
2022/10/29 04:36:17;;;;;;;35.20;8.63;;;14.20;99.90;;;;;;5003608;28;20527;-60
2022/10/29 04:38:43;;;;;;;31.02;8.38;;;14.20;99.90;;;;;;5006187;28;20026;-61
2022/10/29 04:41:08;;;;;;;21.10;8.65;;;14.20;99.90;;;;;;5005712;28;20037;-61
2022/10/29 04:43:34;;;;;;;23.83;9.02;;;14.30;99.90;;;;;;5001536;28;20034;-61
2022/10/29 04:45:59;;;;;;;21.30;9.13;;;14.30;99.90;;;;;;5005307;28;20034;-61
2022/10/29 04:48:26;;;;;;;32.38;8.70;;;14.30;99.90;;;;;;5005448;28;20052;-59
2022/10/29 04:50:52;;;;;;;27.02;9.93;;;14.40;99.90;;;;;;5004651;28;20032;-61
2022/10/29 04:53:18;;;;;;;20.65;8.75;;;14.40;99.90;;;;;;5001012;28;20033;-60
2022/10/29 04:55:44;;;;;;;31.92;9.48;;;14.50;99.90;;;;;;5003245;28;20022;-60
2022/10/29 04:58:16;;;;;;;23.20;8.20;;;14.50;99.90;;;;;;5002519;28;20018;-60
2022/10/29 05:00:41;;;;;;;24.25;8.93;;;14.50;99.90;;;;;;5003753;28;20030;-59
2022/10/29 05:03:07;;;;;;;23.80;9.35;;;14.50;99.90;;;;;;5005382;28;20033;-60
2022/10/29 05:05:34;;;;;;;30.48;8.75;;;14.50;99.90;;;;;;5005742;28;20026;-58
2022/10/29 05:08:01;;;;;;;33.75;9.23;;;14.50;99.90;;;;;;5008963;28;20416;-59
2022/10/29 05:10:30;;;;;;;24.90;8.52;;;14.50;99.90;;;;;;5002267;28;20506;-60
2022/10/29 05:13:00;;;;;;;28.73;7.95;;;14.50;99.90;;;;;;5007289;28;20039;-60
2022/10/29 05:15:26;;;;;;;27.63;9.55;;;14.50;99.90;;;;;;5008995;28;20022;-59
2022/10/29 05:17:52;;;;;;;27.20;7.53;;;14.50;99.90;;;;;;5008655;28;20044;-58
2022/10/29 05:20:18;;;;;;;27.15;8.40;;;14.50;99.90;;;;;;5005496;28;20030;-60
2022/10/29 05:22:43;;;;;;;28.27;8.13;;;14.50;99.90;;;;;;5006114;28;20040;-60
2022/10/29 05:25:09;;;;;;;35.65;7.78;;;14.50;99.90;;;;;;5007783;28;20105;-59
2022/10/29 05:27:34;;;;;;;30.42;9.20;;;14.50;99.90;;;;;;5009315;28;20092;-59
2022/10/29 05:30:00;;;;;;;27.35;7.75;;;14.60;99.90;;;;;;5006789;28;20416;-60
2022/10/29 05:32:28;;;;;;;18.80;8.23;;;14.60;99.90;;;;;;5003171;28;20030;-59
2022/10/29 05:34:54;;;;;;;28.98;8.32;;;14.60;99.90;;;;;;5004131;28;20030;-61
2022/10/29 05:37:20;;;;;;;19.15;7.57;;;14.60;99.90;;;;;;5009563;28;20428;-61
2022/10/29 05:39:45;;;;;;;39.22;8.70;;;14.70;99.90;;;;;;5004774;28;20049;-61
2022/10/29 05:42:11;;;;;;;19.67;9.27;;;14.70;99.90;;;;;;5010626;28;20395;-61
2022/10/29 05:44:36;;;;;;;25.60;8.40;;;14.70;99.90;;;;;;5010100;28;20029;-62
2022/10/29 05:47:02;;;;;;;22.08;6.95;;;14.60;99.90;;;;;;5007468;28;20038;-61
2022/10/29 05:49:28;;;;;;;20.42;8.52;;;14.60;99.90;;;;;;5042942;22;20464;-64
2022/10/29 05:51:53;;;;;;;16.98;7.95;;;14.60;99.90;;;;;;5041322;28;20025;-61
2022/10/29 05:54:18;;;;;;;22.30;6.57;;;14.60;99.90;;;;;;5046349;28;20102;-61
2022/10/29 05:56:44;;;;;;;36.30;8.60;;;14.60;99.90;;;;;;5048606;28;20025;-64
2022/10/29 05:59:10;;;;;;;27.48;9.93;;;14.60;99.90;;;;;;5047164;28;20033;-63
2022/10/29 06:01:35;;;;;;;27.60;8.88;;;14.70;99.90;;;;;;5043692;28;20026;-61
2022/10/29 06:04:01;;;;;;;28.08;7.80;;;14.60;99.90;;;;;;5047099;28;20040;-62
2022/10/29 06:06:26;;;;;;;22.70;7.15;;;14.70;99.90;;;;;;5045404;28;20079;-63
2022/10/29 06:08:52;;;;;;;20.80;7.22;;;14.70;99.90;;;;;;5047644;28;20027;-62
2022/10/29 06:11:18;;;;;;;30.27;7.45;;;14.70;99.90;;;;;;5043942;28;20096;-63
2022/10/29 06:13:43;;;;;;;25.33;7.85;;;14.70;99.90;;;;;;5046949;28;20029;-63
2022/10/29 06:16:09;;;;;;;21.42;7.85;;;14.70;99.90;;;;;;5034792;28;20029;-64
2022/10/29 06:18:34;;;;;;;29.98;7.38;;;14.80;99.90;;;;;;5044424;28;20068;-62
2022/10/29 06:21:00;;;;;;;16.75;7.03;;;14.80;99.90;;;;;;5041558;28;20409;-62
2022/10/29 06:23:27;;;;;;;22.60;8.00;;;14.80;99.90;;;;;;5039519;28;20501;-63
2022/10/29 06:25:52;;;;;;;23.65;8.13;;;14.80;99.90;;;;;;5040937;28;20021;-63
2022/10/29 06:28:18;;;;;;;15.93;6.80;;;14.80;99.90;;;;;;5041614;28;20098;-64
2022/10/29 06:30:50;;;;;;;22.50;7.22;;;14.80;99.90;;;;;;5040059;28;20037;-64
2022/10/29 06:33:19;;;;;;;25.38;10.85;;;14.90;99.90;;;;;;5043610;28;20033;-62
2022/10/29 06:35:45;;;;;;;25.05;8.00;;;14.80;99.90;;;;;;5047167;28;20525;-64
2022/10/29 06:38:11;;;;;;;23.75;8.20;;;14.80;99.90;;;;;;5048642;28;20068;-64
2022/10/29 06:40:36;;;;;;;22.58;7.07;;;14.80;99.90;;;;;;5044620;28;20032;-64
2022/10/29 06:43:05;;;;;;;23.25;7.10;;;14.80;99.90;;;;;;5041621;28;20123;-65
2022/10/29 06:45:32;;;;;;;23.80;7.88;;;14.80;99.90;;;;;;5042926;28;20029;-62
2022/10/29 06:47:58;;;;;;;17.60;7.75;;;14.70;99.90;;;;;;5040275;28;20041;-63
2022/10/29 06:50:24;;;;;;;20.90;7.30;;;14.70;99.90;;;;;;5037391;28;20034;-63
2022/10/29 06:52:57;;;;;;;29.85;8.35;;;14.60;99.90;;;;;;5044842;28;20847;-62
2022/10/29 06:55:23;;;;;;;30.95;10.30;;;14.60;99.90;;;;;;5034526;28;20078;-64
2022/10/29 06:58:00;;;;;;;17.85;7.18;;;14.60;99.90;;;;;;5046143;28;21312;-66
2022/10/29 07:00:30;;;;;;;16.05;7.18;;;14.60;99.90;;;;;;5038833;28;20029;-63
2022/10/29 07:02:55;;;;;;;27.33;8.63;;;14.50;99.90;;;;;;5047492;28;20048;-56
2022/10/29 07:05:22;;;;;;;22.17;7.28;;;14.60;99.90;;;;;;5047086;28;20059;-54
2022/10/29 07:07:48;;;;;;;24.80;7.60;;;14.60;99.90;;;;;;5038638;28;21153;-55
2022/10/29 07:10:13;;;;;;;20.70;8.63;;;14.60;99.90;;;;;;5042553;28;20024;-58
2022/10/29 07:12:43;;;;;;;28.67;7.10;;;14.60;99.90;;;;;;5033438;28;20113;-57
2022/10/29 07:15:09;;;;;;;28.33;8.13;;;14.70;99.90;;;;;;5038643;28;20034;-57
2022/10/29 07:17:35;;;;;;;33.38;9.05;;;14.60;99.90;;;;;;5045822;28;20120;-58
2022/10/29 07:20:01;;;;;;;21.80;7.57;;;14.60;99.90;;;;;;5047975;28;20029;-54
2022/10/29 07:22:27;;;;;;;38.47;7.82;;;14.60;99.90;;;;;;5046679;28;20390;-55
2022/10/29 07:24:52;;;;;;;16.23;6.95;;;14.70;99.90;;;;;;5046819;28;20108;-58
2022/10/29 07:27:18;;;;;;;24.30;8.27;;;14.80;99.90;;;;;;5046663;28;20056;-55
2022/10/29 07:29:43;;;;;;;29.40;8.77;;;14.80;99.90;;;;;;5045627;28;20021;-57
2022/10/29 07:32:09;;;;;;;23.90;7.63;;;14.90;99.90;;;;;;5034059;28;20029;-56
2022/10/29 07:34:34;;;;;;;21.35;7.68;;;14.90;99.90;;;;;;5042929;28;20040;-59
2022/10/29 07:37:00;;;;;;;18.13;6.78;;;15.00;99.90;;;;;;5043703;28;20052;-57
2022/10/29 07:39:25;;;;;;;27.80;8.57;;;15.10;99.90;;;;;;5043945;28;20454;-58
2022/10/29 07:41:51;;;;;;;23.05;7.65;;;15.20;99.90;;;;;;5043166;28;20554;-58
2022/10/29 07:44:16;;;;;;;19.73;7.00;;;15.20;99.90;;;;;;5043316;28;20507;-57
2022/10/29 07:46:42;;;;;;;18.67;7.22;;;15.30;99.90;;;;;;5043439;28;20039;-55
2022/10/29 07:49:07;;;;;;;28.40;7.93;;;15.40;99.90;;;;;;5047034;28;20033;-55
2022/10/29 07:51:33;;;;;;;16.27;6.93;;;15.40;99.90;;;;;;5042093;28;20025;-56
2022/10/29 07:53:59;;;;;;;23.65;7.78;;;15.50;99.90;;;;;;5044619;28;20030;-54
2022/10/29 07:56:24;;;;;;;22.45;7.25;;;15.60;99.90;;;;;;5040234;28;20044;-57
2022/10/29 07:58:50;;;;;;;23.70;7.18;;;15.60;99.90;;;;;;5045264;28;20220;-57
2022/10/29 08:01:15;;;;;;;19.73;6.82;;;15.70;99.90;;;;;;5039217;28;20372;-55
2022/10/29 08:03:41;;;;;;;21.17;7.75;;;15.80;99.90;;;;;;5041358;28;20116;-56
2022/10/29 08:06:06;;;;;;;23.15;8.15;;;15.80;99.90;;;;;;5043718;28;20025;-57
2022/10/29 08:08:33;;;;;;;25.95;6.50;;;15.90;99.90;;;;;;5045939;28;20111;-57
2022/10/29 08:11:03;;;;;;;18.75;7.32;;;16.00;99.90;;;;;;5045524;28;20505;-54
2022/10/29 08:13:29;;;;;;;21.35;7.43;;;16.10;99.90;;;;;;5042526;28;20033;-56
2022/10/29 08:15:55;;;;;;;26.17;6.78;;;16.10;99.90;;;;;;5041215;28;20036;-57
2022/10/29 08:18:20;;;;;;;21.35;6.35;;;16.20;99.90;;;;;;5040278;28;20033;-55
2022/10/29 08:20:46;;;;;;;25.15;6.85;;;16.20;99.90;;;;;;5036215;28;20033;-57
2022/10/29 08:23:12;;;;;;;22.60;6.97;;;16.20;99.90;;;;;;5044889;28;20021;-54
2022/10/29 08:25:40;;;;;;;16.88;6.53;;;16.30;99.90;;;;;;5041120;28;20025;-53
2022/10/29 08:28:06;;;;;;;29.10;8.85;;;16.30;99.90;;;;;;5045936;28;20029;-52
2022/10/29 08:30:33;;;;;;;21.50;6.70;;;16.30;99.90;;;;;;5044732;28;20025;-52
2022/10/29 08:32:59;;;;;;;21.65;7.03;;;16.40;99.90;;;;;;5046289;28;20112;-53
2022/10/29 08:35:25;;;;;;;19.95;6.50;;;16.40;99.90;;;;;;5043255;28;20049;-53
2022/10/29 08:37:51;;;;;;;20.38;6.22;;;16.50;99.90;;;;;;5042219;28;20494;-55
2022/10/29 08:40:16;;;;;;;22.08;5.78;;;16.50;99.90;;;;;;5046978;28;20029;-51
2022/10/29 08:42:57;;;;;;;15.20;6.38;;;16.60;99.90;;;;;;5051867;28;20482;-51
2022/10/29 08:45:46;;;;;;;23.85;7.80;;;16.60;99.90;;;;;;5042670;28;20152;-58
2022/10/29 08:48:21;;;;;;;26.58;7.22;;;16.70;99.90;;;;;;5039231;28;20709;-52
2022/10/29 08:50:55;;;;;;;20.05;6.30;;;16.70;99.90;;;;;;5048114;28;20051;-54
2022/10/29 08:53:26;;;;;;;20.02;6.00;;;16.70;99.90;;;;;;5046161;28;20504;-57
2022/10/29 08:55:51;;;;;;;26.90;7.20;;;16.80;99.90;;;;;;5048272;28;20037;-53
2022/10/29 08:58:38;;;;;;;29.90;8.45;;;16.80;99.90;;;;;;5047090;28;20450;-57
2022/10/29 09:01:10;;;;;;;20.45;5.70;;;16.80;99.90;;;;;;5047691;28;20035;-52
2022/10/29 09:03:36;;;;;;;21.50;7.65;;;16.90;99.90;;;;;;5045599;28;20021;-57
2022/10/29 09:06:01;;;;;;;20.90;6.35;;;17.00;99.90;;;;;;5044813;28;20406;-59
2022/10/29 09:08:45;;;;;;;29.65;6.63;;;17.10;99.90;;;;;;5048904;28;20033;-53
2022/10/29 09:11:22;;;;;;;42.08;7.75;;;17.20;99.90;;;;;;5048073;28;20068;-54
2022/10/29 09:13:54;;;;;;;23.50;6.13;;;17.30;99.90;;;;;;5050921;28;20033;-51
2022/10/29 09:16:33;;;;;;;25.15;6.20;;;17.40;99.90;;;;;;5042482;28;20032;-53
2022/10/29 09:19:24;;;;;;;15.82;7.60;;;17.50;99.90;;;;;;5042711;28;20099;-54
2022/10/29 09:22:05;;;;;;;21.35;6.93;;;17.60;99.90;;;;;;5049109;28;20025;-57
2022/10/29 09:24:48;;;;;;;14.45;5.53;;;17.70;99.90;;;;;;5049183;28;20083;-57
2022/10/29 09:27:36;;;;;;;30.50;6.32;;;17.80;99.90;;;;;;5040199;28;20032;-56
2022/10/29 09:30:13;;;;;;;18.30;5.75;;;17.80;99.90;;;;;;5045140;28;20043;-54
2022/10/29 09:33:03;;;;;;;14.48;5.55;;;17.90;99.90;;;;;;5046188;28;20691;-58
2022/10/29 09:35:43;;;;;;;26.27;7.35;;;18.00;99.90;;;;;;5038130;28;20033;-57
2022/10/29 09:38:30;;;;;;;21.67;7.00;;;18.00;99.90;;;;;;5043394;28;20033;-57
2022/10/29 09:40:58;;;;;;;32.28;6.43;;;18.00;99.90;;;;;;5047489;28;20021;-55
2022/10/29 09:43:36;;;;;;;14.00;5.25;;;18.10;99.90;;;;;;5047199;28;20029;-52
2022/10/29 09:46:08;;;;;;;14.73;5.57;;;18.10;99.90;;;;;;5047982;28;20500;-55
2022/10/29 09:48:59;;;;;;;20.33;5.88;;;18.20;99.90;;;;;;5045687;28;20039;-58
2022/10/29 09:51:59;;;;;;;15.88;5.55;;;18.20;99.90;;;;;;5038986;28;20399;-55
2022/10/29 09:54:28;;;;;;;15.32;5.65;;;18.30;99.90;;;;;;5040801;28;20093;-57
2022/10/29 09:56:56;;;;;;;30.08;6.30;;;18.30;99.90;;;;;;5046419;28;20029;-56
2022/10/29 09:59:37;;;;;;;25.40;8.50;;;18.40;99.90;;;;;;5028259;28;20104;-55
2022/10/29 10:02:19;;;;;;;18.25;5.43;;;18.40;99.90;;;;;;5025479;28;20029;-58
2022/10/29 10:04:48;;;;;;;17.42;5.60;;;18.40;99.90;;;;;;5044877;28;20057;-56
2022/10/29 10:07:19;;;;;;;19.27;5.40;;;18.50;99.90;;;;;;5044862;28;20407;-53
2022/10/29 10:09:56;;;;;;;23.25;6.15;;;18.60;99.90;;;;;;5041376;28;20664;-56
2022/10/29 10:12:45;;;;;;;16.02;6.13;;;18.60;99.90;;;;;;5042955;28;20028;-58
2022/10/29 10:15:32;;;;;;;23.67;5.30;;;18.60;99.90;;;;;;5038625;28;20024;-56
2022/10/29 10:18:00;;;;;;;18.10;5.70;;;18.70;99.90;;;;;;5043668;28;20052;-52
2022/10/29 10:20:26;;;;;;;24.52;7.35;;;18.70;99.90;;;;;;5041804;28;20033;-56
2022/10/29 10:22:51;;;;;;;26.20;6.00;;;18.70;99.90;;;;;;5047225;28;20384;-51
2022/10/29 10:25:33;;;;;;;16.50;5.25;;;18.80;99.90;;;;;;5045536;28;20020;-58
2022/10/29 10:28:22;;;;;;;21.55;5.43;;;18.90;99.90;;;;;;5040654;28;20034;-56
2022/10/29 10:31:03;;;;;;;25.15;6.57;;;19.10;99.90;;;;;;5042212;28;20402;-56
2022/10/29 10:33:30;;;;;;;18.58;6.45;;;19.00;99.90;;;;;;5042867;28;20029;-56
2022/10/29 10:36:01;;;;;;;21.17;6.25;;;19.10;99.90;;;;;;5040350;28;20025;-52
2022/10/29 10:38:27;;;;;;;19.15;5.72;;;19.20;99.90;;;;;;5041862;28;20049;-55
2022/10/29 10:40:59;;;;;;;24.17;6.35;;;19.20;99.90;;;;;;5048768;28;20057;-57
2022/10/29 10:43:25;;;;;;;20.17;5.40;;;19.30;99.90;;;;;;5048125;28;20025;-57
2022/10/29 10:45:57;;;;;;;22.45;6.10;;;19.20;99.90;;;;;;5038526;28;20040;-58
2022/10/29 10:48:26;;;;;;;23.65;6.63;;;19.30;99.90;;;;;;5045386;28;20386;-55
2022/10/29 10:51:09;;;;;;;32.70;7.47;;;19.20;99.90;;;;;;5040957;28;20055;-55
2022/10/29 10:53:37;;;;;;;22.25;6.72;;;19.20;99.90;;;;;;5044566;28;20116;-58
2022/10/29 10:56:03;;;;;;;30.88;6.75;;;19.20;99.90;;;;;;5039078;28;20048;-57
2022/10/29 10:58:59;;;;;;;30.70;6.38;;;19.20;99.90;;;;;;5043379;28;20499;-58
2022/10/29 11:01:44;;;;;;;17.35;4.75;;;19.20;99.90;;;;;;5043452;28;20044;-57
2022/10/29 11:04:19;;;;;;;16.92;4.75;;;19.30;99.90;;;;;;5047776;28;20029;-54
2022/10/29 11:06:49;;;;;;;12.45;5.70;;;19.30;99.90;;;;;;5046602;28;20036;-56
2022/10/29 11:09:18;;;;;;;26.05;5.80;;;19.40;99.90;;;;;;5046753;28;20094;-56
2022/10/29 11:11:51;;;;;;;26.75;6.75;;;19.30;99.90;;;;;;5055306;28;20040;-56
2022/10/29 11:14:47;;;;;;;19.70;6.78;;;19.40;99.90;;;;;;5045865;28;20025;-57
2022/10/29 11:17:28;;;;;;;16.42;5.47;;;19.40;99.90;;;;;;5043636;28;20039;-55
2022/10/29 11:19:59;;;;;;;20.42;5.28;;;19.50;99.90;;;;;;5039307;28;20052;-55
2022/10/29 11:22:53;;;;;;;23.83;5.80;;;19.60;99.90;;;;;;5043429;28;20414;-51
2022/10/29 11:25:42;;;;;;;29.42;6.30;;;19.60;99.90;;;;;;5010651;28;20033;-58
2022/10/29 11:28:27;;;;;;;27.30;7.13;;;19.60;99.90;;;;;;5040661;28;20673;-56
2022/10/29 11:31:07;;;;;;;32.72;5.88;;;19.70;99.90;;;;;;5041692;28;20186;-56
2022/10/29 11:33:47;;;;;;;23.60;5.53;;;19.90;99.90;;;;;;5045621;28;20033;-56
2022/10/29 11:36:20;;;;;;;20.17;5.13;;;20.10;99.90;;;;;;5043407;28;20082;-55
2022/10/29 11:38:51;;;;;;;16.48;5.57;;;20.20;99.90;;;;;;5042551;28;20029;-54
2022/10/29 11:41:50;;;;;;;16.92;4.82;;;20.30;99.90;;;;;;5044765;28;20108;-54
2022/10/29 11:44:19;;;;;;;20.48;5.90;;;20.50;99.90;;;;;;5023765;28;20033;-56
2022/10/29 11:47:17;;;;;;;14.98;5.50;;;20.50;99.90;;;;;;5043002;28;20017;-53
2022/10/29 11:50:06;;;;;;;25.67;6.82;;;20.60;99.90;;;;;;5036768;28;20033;-55
2022/10/29 11:52:50;;;;;;;22.98;6.40;;;20.80;99.90;;;;;;5051253;22;20041;-57
2022/10/29 11:55:22;;;;;;;21.92;6.35;;;20.80;99.90;;;;;;5027288;28;20479;-58
2022/10/29 11:58:19;;;;;;;23.45;5.40;;;20.90;99.90;;;;;;5022305;28;20065;-58
2022/10/29 12:00:50;;;;;;;19.80;5.35;;;20.90;99.90;;;;;;5021864;28;20025;-58
2022/10/29 12:03:48;;;;;;;18.63;5.15;;;20.90;99.90;;;;;;5027280;28;20056;-59
2022/10/29 12:06:28;;;;;;;15.57;4.70;;;20.90;99.90;;;;;;4990564;28;20037;-58
2022/10/29 12:09:12;;;;;;;25.05;5.10;;;21.00;99.90;;;;;;5026444;28;20566;-56
2022/10/29 12:12:02;;;;;;;23.40;6.57;;;20.90;99.90;;;;;;5026977;28;20477;-56
2022/10/29 12:14:54;;;;;;;23.02;5.20;;;20.90;99.90;;;;;;5029831;28;20033;-56
2022/10/29 12:17:48;;;;;;;24.40;6.47;;;21.00;99.90;;;;;;4994756;28;20106;-56
2022/10/29 12:20:27;;;;;;;31.38;6.43;;;21.10;99.90;;;;;;5023271;28;20037;-56
2022/10/29 12:22:59;;;;;;;23.27;5.18;;;21.20;99.90;;;;;;5032051;28;20017;-56
2022/10/29 12:26:10;;;;;;;20.25;4.55;;;21.30;99.90;;;;;;5033015;28;20029;-57
2022/10/29 12:28:47;;;;;;;22.33;5.57;;;21.10;99.90;;;;;;5025176;28;20029;-54
2022/10/29 12:31:37;;;;;;;33.63;7.63;;;21.20;99.90;;;;;;5031829;28;20018;-56
2022/10/29 12:34:06;;;;;;;16.10;5.18;;;21.20;99.90;;;;;;5028755;28;20488;-57
2022/10/29 12:36:39;;;;;;;28.35;5.22;;;21.20;99.90;;;;;;5031348;28;20025;-57
2022/10/29 12:39:14;;;;;;;21.42;6.70;;;21.20;99.90;;;;;;5032585;28;20033;-58
2022/10/29 12:41:49;;;;;;;21.98;6.07;;;21.20;99.90;;;;;;5033303;28;20096;-59
2022/10/29 12:44:27;;;;;;;16.70;5.03;;;21.10;99.90;;;;;;5031962;28;20095;-57
2022/10/29 12:47:09;;;;;;;22.95;4.72;;;21.00;99.90;;;;;;5030944;28;20108;-54
2022/10/29 12:49:47;;;;;;;10.02;4.88;;;21.00;99.90;;;;;;5024883;28;20541;-58
2022/10/29 12:52:28;;;;;;;17.77;4.82;;;21.00;99.90;;;;;;5035903;28;20033;-58
2022/10/29 12:54:55;;;;;;;22.48;5.18;;;21.00;99.90;;;;;;5033034;28;20156;-58
2022/10/29 12:57:34;;;;;;;17.83;5.40;;;20.90;99.90;;;;;;5032454;28;20039;-58